createdAt,value
2019-03-30T00:01:26.940Z,51.93
2019-03-30T00:06:45.570Z,51.92
2019-03-30T00:11:59.628Z,52.21
2019-03-30T00:17:24.009Z,52.66
2019-03-30T00:22:41.561Z,53.59
2019-03-30T00:27:59.889Z,53.41
2019-03-30T00:33:20.546Z,53.04
2019-03-30T00:38:38.532Z,52.94
2019-03-30T00:43:58.937Z,52.97
2019-03-30T00:49:22.211Z,53.04
2019-03-30T00:54:29.963Z,53.31
2019-03-30T00:59:55.283Z,53.20
2019-03-30T01:05:17.188Z,53.31
2019-03-30T01:10:40.770Z,54.17
2019-03-30T01:15:59.103Z,55.54
2019-03-30T01:21:21.412Z,56.76
2019-03-30T01:26:40.684Z,56.90
2019-03-30T01:31:58.928Z,55.92
2019-03-30T01:37:37.283Z,55.41
2019-03-30T01:42:58.134Z,56.10
2019-03-30T01:48:32.231Z,57.21
2019-03-30T01:54:06.149Z,57.63
2019-03-30T01:59:34.440Z,59.54
2019-03-30T02:04:52.481Z,59.06
2019-03-30T02:10:40.802Z,58.86
2019-03-30T02:16:12.273Z,58.45
2019-03-30T02:21:26.801Z,58.44
2019-03-30T02:26:43.012Z,58.33
2019-03-30T02:31:55.638Z,59.51
2019-03-30T02:37:08.109Z,59.14
2019-03-30T02:42:46.454Z,58.26
2019-03-30T02:48:00.646Z,59.08
2019-03-30T02:53:13.091Z,58.42
2019-03-30T02:58:28.457Z,58.31
2019-03-30T03:04:09.077Z,58.12
2019-03-30T03:09:36.148Z,58.42
2019-03-30T03:14:54.999Z,58.77
2019-03-30T03:20:13.894Z,59.43
2019-03-30T03:25:37.995Z,59.75
2019-03-30T03:30:57.702Z,59.49
2019-03-30T03:36:09.788Z,59.12
2019-03-30T03:41:37.770Z,59.12
2019-03-30T03:46:57.179Z,59.80
2019-03-30T03:52:13.399Z,59.71
2019-03-30T03:57:42.034Z,59.91
2019-03-30T04:03:03.567Z,60.14
2019-03-30T04:08:28.914Z,60.46
2019-03-30T04:13:42.448Z,60.28
2019-03-30T04:18:58.290Z,60.25
2019-03-30T04:24:09.949Z,60.44
2019-03-30T04:29:18.136Z,60.18
2019-03-30T04:34:33.371Z,60.13
2019-03-30T04:39:49.639Z,61.00
2019-03-30T04:45:03.831Z,61.19
2019-03-30T04:50:15.537Z,60.70
2019-03-30T04:55:44.388Z,61.38
2019-03-30T05:00:57.775Z,61.18
2019-03-30T05:06:14.506Z,60.94
2019-03-30T05:11:34.754Z,61.31
2019-03-30T05:16:52.102Z,61.45
2019-03-30T05:22:16.331Z,61.00
2019-03-30T05:27:28.425Z,61.51
2019-03-30T05:32:41.820Z,61.34
2019-03-30T05:38:01.720Z,61.69
2019-03-30T05:43:19.698Z,62.52
2019-03-30T05:48:40.705Z,62.15
2019-03-30T05:54:18.345Z,61.93
2019-03-30T05:59:35.856Z,61.69
2019-03-30T06:05:14.389Z,61.22
2019-03-30T06:10:47.807Z,60.96
2019-03-30T06:16:02.691Z,60.83
2019-03-30T06:21:14.720Z,60.59
2019-03-30T06:26:27.907Z,60.66
2019-03-30T06:31:46.655Z,60.30
2019-03-30T06:37:00.967Z,60.11
2019-03-30T06:42:13.409Z,59.81
2019-03-30T06:47:33.089Z,59.47
2019-03-30T06:52:58.074Z,59.23
2019-03-30T06:58:35.214Z,58.33
2019-03-30T07:03:55.564Z,58.11
2019-03-30T07:09:34.575Z,57.88
2019-03-30T07:14:47.336Z,57.57
2019-03-30T07:20:02.779Z,57.12
2019-03-30T07:25:17.608Z,56.46
2019-03-30T07:30:26.470Z,56.50
2019-03-30T07:35:36.208Z,55.65
2019-03-30T07:40:44.156Z,55.15
2019-03-30T07:46:19.620Z,53.75
2019-03-30T07:51:37.370Z,53.38
2019-03-30T07:57:05.033Z,53.34
2019-03-30T08:02:11.939Z,52.75
2019-03-30T08:07:26.603Z,52.61
2019-03-30T08:18:11.978Z,52.60
2019-03-30T08:23:39.572Z,51.68
2019-03-30T08:28:39.388Z,50.50
2019-03-30T08:34:09.455Z,50.28
2019-03-30T08:39:42.466Z,50.78
2019-03-30T08:44:56.347Z,49.89
2019-03-30T08:50:10.437Z,49.58
2019-03-30T08:55:22.657Z,48.65
2019-03-30T09:00:58.405Z,47.58
2019-03-30T09:06:34.277Z,47.27
2019-03-30T09:11:47.766Z,47.64
2019-03-30T09:16:58.125Z,47.07
2019-03-30T09:22:13.434Z,46.56
2019-03-30T09:27:29.923Z,45.80
2019-03-30T09:32:48.897Z,45.03
2019-03-30T09:38:03.049Z,45.00
2019-03-30T09:43:25.510Z,45.20
2019-03-30T09:49:04.133Z,45.00
2019-03-30T09:54:23.599Z,44.67
2019-03-30T09:59:39.528Z,45.42
2019-03-30T10:04:57.442Z,44.91
2019-03-30T10:10:20.141Z,42.84
2019-03-30T10:15:41.793Z,39.04
2019-03-30T10:21:05.636Z,38.39
2019-03-30T10:26:19.851Z,36.51
2019-03-30T10:31:59.792Z,35.58
2019-03-30T10:37:12.255Z,34.71
2019-03-30T10:42:27.461Z,33.92
2019-03-30T10:47:39.555Z,33.35
2019-03-30T10:52:52.069Z,33.16
2019-03-30T10:58:13.905Z,32.01
2019-03-30T11:03:28.932Z,31.16
2019-03-30T11:08:47.971Z,30.88
2019-03-30T11:14:08.430Z,30.18
2019-03-30T11:19:31.208Z,31.18
2019-03-30T11:24:46.383Z,32.78
2019-03-30T11:30:05.193Z,32.65
2019-03-30T11:35:42.881Z,30.86
2019-03-30T11:40:56.543Z,31.07
2019-03-30T11:46:23.683Z,32.66
2019-03-30T11:51:35.372Z,30.29
2019-03-30T11:56:49.377Z,30.38
2019-03-30T12:02:11.261Z,28.12
2019-03-30T12:07:23.442Z,26.17
2019-03-30T12:12:47.781Z,26.48
2019-03-30T12:18:03.192Z,26.61
2019-03-30T12:23:16.369Z,25.59
2019-03-30T12:28:29.339Z,25.55
2019-03-30T12:33:55.997Z,26.03
2019-03-30T12:39:12.492Z,25.39
2019-03-30T12:44:25.162Z,25.77
2019-03-30T12:49:40.579Z,25.03
2019-03-30T13:00:35.647Z,22.89
2019-03-30T13:05:49.028Z,23.73
2019-03-30T13:11:22.115Z,23.62
2019-03-30T13:16:35.535Z,23.22
2019-03-30T13:21:55.301Z,23.39
2019-03-30T13:27:07.735Z,22.98
2019-03-30T13:32:21.923Z,22.67
2019-03-30T13:37:53.563Z,23.46
2019-03-30T13:43:04.960Z,23.39
2019-03-30T13:48:30.532Z,23.27
2019-03-30T13:53:53.676Z,22.80
2019-03-30T13:59:09.280Z,21.92
2019-03-30T14:04:26.103Z,22.46
2019-03-30T14:09:43.319Z,22.33
2019-03-30T14:14:57.038Z,21.42
2019-03-30T14:20:07.355Z,22.58
2019-03-30T14:25:22.339Z,22.34
2019-03-30T14:30:40.183Z,23.28
2019-03-30T14:35:55.372Z,23.91
2019-03-30T14:41:10.089Z,23.77
2019-03-30T14:46:27.305Z,23.66
2019-03-30T14:52:06.440Z,25.21
2019-03-30T14:57:23.754Z,25.57
2019-03-30T15:02:36.092Z,23.89
2019-03-30T15:07:54.380Z,26.27
2019-03-30T15:13:14.567Z,27.99
2019-03-30T15:18:32.303Z,28.31
2019-03-30T15:23:47.556Z,28.54
2019-03-30T15:29:01.698Z,29.30
2019-03-30T15:34:50.913Z,29.12
2019-03-30T15:40:10.128Z,30.68
2019-03-30T15:45:24.789Z,31.09
2019-03-30T15:50:44.836Z,31.45
2019-03-30T15:55:59.951Z,30.80
2019-03-30T16:01:35.221Z,31.02
2019-03-30T16:06:47.044Z,31.27
2019-03-30T16:12:02.656Z,31.79
2019-03-30T16:17:16.899Z,31.67
2019-03-30T16:22:34.211Z,32.28
2019-03-30T16:27:42.284Z,32.33
2019-03-30T16:32:52.826Z,32.64
2019-03-30T16:38:04.965Z,32.38
2019-03-30T16:43:16.153Z,33.04
2019-03-30T16:48:29.963Z,33.68
2019-03-30T16:53:42.385Z,33.80
2019-03-30T16:58:58.053Z,33.32
2019-03-30T17:04:12.284Z,33.35
2019-03-30T17:09:27.320Z,33.95
2019-03-30T17:14:50.081Z,34.38
2019-03-30T17:20:05.885Z,34.30
2019-03-30T17:25:27.711Z,34.44
2019-03-30T17:30:35.654Z,34.76
2019-03-30T17:35:50.691Z,34.98
2019-03-30T17:41:22.361Z,34.96
2019-03-30T17:46:39.239Z,35.80
2019-03-30T17:51:55.581Z,37.93
2019-03-30T17:57:06.978Z,38.62
2019-03-30T18:02:39.909Z,39.20
2019-03-30T18:08:01.404Z,39.53
2019-03-30T18:13:11.505Z,39.87
2019-03-30T18:18:28.881Z,40.49
2019-03-30T18:23:47.395Z,40.60
2019-03-30T18:29:05.192Z,40.90
2019-03-30T18:34:23.010Z,41.51
2019-03-30T18:39:37.550Z,41.74
2019-03-30T18:44:45.385Z,41.66
2019-03-30T18:50:01.704Z,41.50
2019-03-30T18:55:23.024Z,41.77
2019-03-30T19:00:43.090Z,41.89
2019-03-30T19:05:57.132Z,41.82
2019-03-30T19:11:12.876Z,41.84
2019-03-30T19:16:23.927Z,41.96
2019-03-30T19:21:59.205Z,42.38
2019-03-30T19:27:17.417Z,42.25
2019-03-30T19:32:29.383Z,42.18
2019-03-30T19:37:43.736Z,42.47
2019-03-30T19:42:57.576Z,42.84
2019-03-30T19:48:25.381Z,42.92
2019-03-30T19:53:34.033Z,43.10
2019-03-30T19:58:54.589Z,43.45
2019-03-30T20:04:03.208Z,43.43
2019-03-30T20:09:16.067Z,43.54
2019-03-30T20:14:32.224Z,43.82
2019-03-30T20:20:27.429Z,43.97
2019-03-30T20:25:45.817Z,44.27
2019-03-30T20:30:57.958Z,44.61
2019-03-30T20:36:08.551Z,45.26
2019-03-30T20:41:14.454Z,45.61
2019-03-30T20:46:34.815Z,45.72
2019-03-30T20:51:58.560Z,46.02
2019-03-30T20:57:34.937Z,46.03
2019-03-30T21:02:57.232Z,46.15
2019-03-30T21:08:07.795Z,46.36
2019-03-30T21:13:27.498Z,46.41
2019-03-30T21:19:03.254Z,46.78
2019-03-30T21:24:16.709Z,46.87
2019-03-30T21:29:35.649Z,46.38
2019-03-30T21:34:54.535Z,46.31
2019-03-30T21:40:05.175Z,46.68
2019-03-30T21:45:22.274Z,46.75
2019-03-30T21:50:54.658Z,47.63
2019-03-30T21:56:13.768Z,47.52
2019-03-30T22:01:26.433Z,47.68
2019-03-30T22:06:52.534Z,48.15
2019-03-30T22:12:16.232Z,47.51
2019-03-30T22:17:31.053Z,47.38
2019-03-30T22:22:50.274Z,47.51
2019-03-30T22:28:09.556Z,47.40
2019-03-30T22:33:21.793Z,47.49
2019-03-30T22:38:42.956Z,47.75
2019-03-30T22:44:02.335Z,47.73
2019-03-30T22:49:17.965Z,47.58
2019-03-30T22:54:39.780Z,47.51
2019-03-30T22:59:56.875Z,47.45
2019-03-30T23:05:17.108Z,47.47
2019-03-30T23:10:38.627Z,47.67
2019-03-30T23:15:48.135Z,47.89
2019-03-30T23:21:01.351Z,48.56
2019-03-30T23:26:34.008Z,48.79
2019-03-30T23:31:54.917Z,48.63
2019-03-30T23:37:13.237Z,48.75
2019-03-30T23:42:28.140Z,49.52
2019-03-30T23:47:45.558Z,49.76
2019-03-30T23:53:07.264Z,50.40
2019-03-30T23:58:24.902Z,50.60
